createdAt,value
2018-02-10T00:00:20.556Z,93.32
2018-02-10T00:01:20.587Z,92.94
2018-02-10T00:02:20.645Z,93.32
2018-02-10T00:03:20.712Z,93.13
2018-02-10T00:04:20.783Z,93.23
2018-02-10T00:05:20.889Z,92.94
2018-02-10T00:06:20.937Z,93.41
2018-02-10T00:07:20.966Z,93.04
2018-02-10T00:08:21.081Z,93.41
2018-02-10T00:09:21.140Z,93.23
2018-02-10T00:10:21.187Z,93.32
2018-02-10T00:11:21.258Z,92.94
2018-02-10T00:12:21.299Z,93.13
2018-02-10T00:13:21.406Z,92.94
2018-02-10T00:14:21.432Z,93.23
2018-02-10T00:15:21.523Z,93.23
2018-02-10T00:16:21.587Z,93.41
2018-02-10T00:17:21.638Z,93.13
2018-02-10T00:18:21.712Z,93.32
2018-02-10T00:19:21.757Z,93.32
2018-02-10T00:20:21.852Z,93.32
2018-02-10T00:21:21.895Z,93.04
2018-02-10T00:22:21.965Z,93.13
2018-02-10T00:23:22.052Z,93.32
2018-02-10T00:24:22.094Z,93.04
2018-02-10T00:25:22.156Z,93.32
2018-02-10T00:26:22.223Z,93.41
2018-02-10T00:27:22.308Z,93.32
2018-02-10T00:28:22.446Z,92.94
2018-02-10T00:29:22.441Z,93.32
2018-02-10T00:30:22.516Z,93.04
2018-02-10T00:31:22.565Z,93.23
2018-02-10T00:32:22.642Z,93.23
2018-02-10T00:33:22.683Z,93.32
2018-02-10T00:34:22.754Z,93.04
2018-02-10T00:35:22.805Z,93.32
2018-02-10T00:36:22.905Z,93.04
2018-02-10T00:37:22.942Z,93.23
2018-02-10T00:38:23.022Z,93.32
2018-02-10T00:39:23.093Z,93.13
2018-02-10T00:40:23.151Z,93.61
2018-02-10T00:41:23.243Z,93.23
2018-02-10T00:42:23.290Z,93.23
2018-02-10T00:43:23.356Z,93.04
2018-02-10T00:44:23.400Z,93.41
2018-02-10T00:45:23.520Z,93.13
2018-02-10T00:46:23.528Z,93.04
2018-02-10T00:47:23.602Z,93.13
2018-02-10T00:48:23.704Z,93.37
2018-02-10T00:49:23.728Z,93.27
2018-02-10T00:50:23.820Z,93.32
2018-02-10T00:51:23.852Z,93.04
2018-02-10T00:52:23.941Z,93.32
2018-02-10T00:53:24.014Z,93.13
2018-02-10T00:54:24.055Z,93.13
2018-02-10T00:55:24.175Z,92.76
2018-02-10T00:56:24.209Z,93.32
2018-02-10T00:57:24.253Z,92.94
2018-02-10T00:58:24.386Z,92.85
2018-02-10T00:59:24.407Z,93.32
2018-02-10T01:00:24.456Z,93.23
2018-02-10T01:01:24.523Z,93.13
2018-02-10T01:02:24.623Z,93.32
2018-02-10T01:03:24.649Z,93.41
2018-02-10T01:04:24.734Z,93.32
2018-02-10T01:05:24.772Z,93.04
2018-02-10T01:06:25.050Z,92.94
2018-02-10T01:07:24.938Z,93.04
2018-02-10T01:08:24.976Z,93.32
2018-02-10T01:09:25.049Z,93.32
2018-02-10T01:10:25.102Z,93.23
2018-02-10T01:11:25.204Z,93.13
2018-02-10T01:12:25.231Z,93.32
2018-02-10T01:13:25.319Z,92.94
2018-02-10T01:14:25.380Z,93.32
2018-02-10T01:15:25.432Z,93.41
2018-02-10T01:16:25.518Z,93.41
2018-02-10T01:17:25.568Z,93.32
2018-02-10T01:18:25.637Z,93.32
2018-02-10T01:19:25.696Z,93.32
2018-02-10T01:20:25.793Z,93.32
2018-02-10T01:21:25.842Z,93.32
2018-02-10T01:22:25.940Z,93.32
2018-02-10T01:23:25.969Z,93.41
2018-02-10T01:24:26.029Z,93.23
2018-02-10T01:25:26.120Z,93.13
2018-02-10T01:26:26.153Z,93.32
2018-02-10T01:27:26.353Z,93.41
2018-02-10T01:28:26.285Z,92.94
2018-02-10T01:29:26.385Z,93.32
2018-02-10T01:30:26.430Z,93.23
2018-02-10T01:31:26.485Z,93.41
2018-02-10T01:32:26.581Z,93.41
2018-02-10T01:33:26.606Z,93.51
2018-02-10T01:34:26.718Z,93.51
2018-02-10T01:35:26.778Z,93.32
2018-02-10T01:36:26.847Z,93.32
2018-02-10T01:37:26.912Z,93.32
2018-02-10T01:38:26.952Z,93.41
2018-02-10T01:39:27.011Z,93.32
2018-02-10T01:40:27.085Z,93.13
2018-02-10T01:41:27.172Z,93.32
2018-02-10T01:42:27.198Z,93.23
2018-02-10T01:43:27.272Z,93.32
2018-02-10T01:44:27.329Z,93.13
2018-02-10T01:45:27.394Z,93.23
2018-02-10T01:46:27.470Z,93.23
2018-02-10T01:47:27.538Z,93.32
2018-02-10T01:48:27.597Z,93.61
2018-02-10T01:49:27.655Z,93.23
2018-02-10T01:50:27.740Z,93.32
2018-02-10T01:51:27.781Z,93.23
2018-02-10T01:52:27.855Z,93.13
2018-02-10T01:53:27.929Z,93.51
2018-02-10T01:54:27.986Z,93.51
2018-02-10T01:55:28.050Z,93.41
2018-02-10T01:56:28.110Z,93.23
2018-02-10T01:57:28.266Z,93.41
2018-02-10T01:58:28.252Z,93.51
2018-02-10T01:59:28.313Z,93.41
2018-02-10T02:00:28.377Z,93.51
2018-02-10T02:01:28.436Z,93.41
2018-02-10T02:02:28.522Z,93.32
2018-02-10T02:03:28.580Z,93.32
2018-02-10T02:04:28.635Z,93.32
2018-02-10T02:05:28.698Z,93.32
2018-02-10T02:06:28.777Z,93.32
2018-02-10T02:07:28.835Z,92.85
2018-02-10T02:08:28.901Z,93.51
2018-02-10T02:09:28.959Z,93.23
2018-02-10T02:10:29.032Z,93.32
2018-02-10T02:11:29.100Z,93.04
2018-02-10T02:12:29.164Z,93.13
2018-02-10T02:13:29.228Z,93.32
2018-02-10T02:14:29.289Z,93.13
2018-02-10T02:15:29.354Z,93.61
2018-02-10T02:16:29.425Z,93.41
2018-02-10T02:17:29.485Z,93.32
2018-02-10T02:18:29.564Z,93.32
2018-02-10T02:19:29.625Z,93.32
2018-02-10T02:20:29.685Z,93.32
2018-02-10T02:21:29.751Z,93.41
2018-02-10T02:22:29.811Z,93.41
2018-02-10T02:23:29.875Z,93.51
2018-02-10T02:24:29.948Z,93.32
2018-02-10T02:25:30.011Z,93.32
2018-02-10T02:26:30.082Z,92.85
2018-02-10T02:27:30.141Z,93.32
2018-02-10T02:28:30.211Z,93.32
2018-02-10T02:29:30.281Z,93.32
2018-02-10T02:30:30.341Z,92.76
2018-02-10T02:31:30.404Z,93.04
2018-02-10T02:32:30.473Z,93.23
2018-02-10T02:33:30.535Z,92.85
2018-02-10T02:34:30.596Z,92.94
2018-02-10T02:35:30.670Z,92.94
2018-02-10T02:36:30.733Z,93.23
2018-02-10T02:37:30.801Z,93.23
2018-02-10T02:38:30.874Z,92.94
2018-02-10T02:39:30.926Z,93.23
2018-02-10T02:40:30.992Z,93.32
2018-02-10T02:41:31.060Z,93.04
2018-02-10T02:42:31.132Z,92.76
2018-02-10T02:43:31.198Z,93.51
2018-02-10T02:44:31.253Z,93.13
2018-02-10T02:45:31.322Z,92.85
2018-02-10T02:46:31.382Z,92.76
2018-02-10T02:47:31.451Z,93.32
2018-02-10T02:48:31.520Z,92.94
2018-02-10T02:49:31.591Z,92.94
2018-02-10T02:50:31.644Z,92.94
2018-02-10T02:51:31.718Z,93.13
2018-02-10T02:52:31.780Z,93.23
2018-02-10T02:53:31.845Z,93.32
2018-02-10T02:54:31.911Z,93.32
2018-02-10T02:55:31.974Z,93.13
2018-02-10T02:56:32.037Z,93.13
2018-02-10T02:57:32.144Z,92.94
2018-02-10T02:58:32.169Z,93.32
2018-02-10T02:59:32.424Z,92.85
2018-02-10T03:00:32.306Z,93.41
2018-02-10T03:01:32.372Z,93.23
2018-02-10T03:02:32.433Z,93.13
2018-02-10T03:03:32.505Z,93.04
2018-02-10T03:04:32.568Z,92.94
2018-02-10T03:05:32.634Z,92.94
2018-02-10T03:06:32.708Z,93.04
2018-02-10T03:07:32.758Z,93.41
2018-02-10T03:08:32.829Z,93.23
2018-02-10T03:09:32.896Z,93.23
2018-02-10T03:10:32.963Z,93.04
2018-02-10T03:11:33.043Z,92.76
2018-02-10T03:12:33.092Z,93.08
2018-02-10T03:13:33.151Z,92.94
2018-02-10T03:14:33.219Z,93.08
2018-02-10T03:15:33.288Z,93.46
2018-02-10T03:16:33.360Z,93.18
2018-02-10T03:17:33.420Z,93.27
2018-02-10T03:18:33.507Z,92.99
2018-02-10T03:19:33.545Z,93.27
2018-02-10T03:20:33.620Z,93.27
2018-02-10T03:21:33.682Z,93.27
2018-02-10T03:22:33.750Z,93.37
2018-02-10T03:23:33.819Z,93.27
2018-02-10T03:24:33.878Z,93.46
2018-02-10T03:25:33.947Z,93.37
2018-02-10T03:26:34.010Z,93.18
2018-02-10T03:27:34.081Z,93.27
2018-02-10T03:28:34.143Z,93.18
2018-02-10T03:29:34.208Z,92.61
2018-02-10T03:30:34.293Z,93.18
2018-02-10T03:31:34.337Z,93.37
2018-02-10T03:32:34.406Z,93.37
2018-02-10T03:33:34.468Z,93.08
2018-02-10T03:34:34.538Z,92.90
2018-02-10T03:35:34.601Z,93.37
2018-02-10T03:36:34.666Z,93.27
2018-02-10T03:37:34.725Z,93.37
2018-02-10T03:38:34.798Z,93.27
2018-02-10T03:39:34.882Z,93.37
2018-02-10T03:40:34.929Z,93.27
2018-02-10T03:41:35.001Z,93.18
2018-02-10T03:42:35.064Z,93.37
2018-02-10T03:43:35.131Z,93.04
2018-02-10T03:44:35.192Z,93.04
2018-02-10T03:45:35.309Z,92.76
2018-02-10T03:46:35.349Z,92.76
2018-02-10T03:47:35.393Z,93.08
2018-02-10T03:48:35.455Z,93.08
2018-02-10T03:49:35.516Z,93.32
2018-02-10T03:50:35.580Z,93.18
2018-02-10T03:51:35.649Z,93.23
2018-02-10T03:52:35.722Z,93.23
2018-02-10T03:53:35.790Z,92.99
2018-02-10T03:54:35.851Z,93.08
2018-02-10T03:55:35.932Z,92.99
2018-02-10T03:56:36.099Z,92.99
2018-02-10T03:57:36.054Z,92.80
2018-02-10T03:58:36.116Z,93.37
2018-02-10T03:59:36.173Z,92.99
2018-02-10T04:00:36.281Z,93.08
2018-02-10T04:01:39.387Z,93.18
2018-02-10T04:02:36.377Z,93.27
2018-02-10T04:03:36.437Z,93.46
2018-02-10T04:04:36.505Z,92.99
2018-02-10T04:05:36.576Z,92.90
2018-02-10T04:06:36.640Z,93.27
2018-02-10T04:07:36.700Z,93.37
2018-02-10T04:08:36.778Z,93.27
2018-02-10T04:09:36.943Z,93.27
2018-02-10T04:10:36.895Z,93.18
2018-02-10T04:11:36.977Z,93.37
2018-02-10T04:12:37.031Z,93.18
2018-02-10T04:13:37.098Z,93.37
2018-02-10T04:14:37.159Z,93.18
2018-02-10T04:15:37.235Z,93.37
2018-02-10T04:16:37.341Z,93.46
2018-02-10T04:17:37.365Z,93.18
2018-02-10T04:18:37.429Z,93.37
2018-02-10T04:19:37.536Z,92.99
2018-02-10T04:20:37.691Z,93.08
2018-02-10T04:21:37.618Z,92.99
2018-02-10T04:22:37.687Z,93.08
2018-02-10T04:23:37.769Z,93.46
2018-02-10T04:24:37.824Z,92.99
2018-02-10T04:25:37.911Z,93.08
2018-02-10T04:26:37.948Z,93.37
2018-02-10T04:27:38.018Z,93.27
2018-02-10T04:28:38.093Z,93.27
2018-02-10T04:29:38.151Z,92.99
2018-02-10T04:30:38.226Z,93.18
2018-02-10T04:31:38.281Z,93.37
2018-02-10T04:32:38.348Z,92.80
2018-02-10T04:33:38.430Z,93.18
2018-02-10T04:34:38.478Z,93.18
2018-02-10T04:35:38.540Z,92.99
2018-02-10T04:36:38.608Z,93.27
2018-02-10T04:37:38.683Z,92.99
2018-02-10T04:38:38.739Z,93.08
2018-02-10T04:39:38.804Z,92.94
2018-02-10T04:40:38.882Z,93.37
2018-02-10T04:41:38.941Z,93.46
2018-02-10T04:42:38.994Z,93.46
2018-02-10T04:43:39.064Z,93.37
2018-02-10T04:44:39.129Z,93.18
2018-02-10T04:45:39.200Z,93.23
2018-02-10T04:46:39.298Z,93.41
2018-02-10T04:47:39.335Z,93.23
2018-02-10T04:48:39.411Z,93.41
2018-02-10T04:49:39.459Z,93.41
2018-02-10T04:50:39.537Z,93.23
2018-02-10T04:51:39.599Z,93.99
2018-02-10T04:52:39.662Z,93.51
2018-02-10T04:53:39.730Z,93.70
2018-02-10T04:54:39.786Z,93.51
2018-02-10T04:55:39.851Z,93.32
2018-02-10T04:56:39.926Z,93.89
2018-02-10T04:57:39.999Z,93.23
2018-02-10T04:58:40.051Z,93.32
2018-02-10T04:59:40.118Z,93.99
2018-02-10T05:00:40.183Z,93.32
2018-02-10T05:01:40.254Z,93.89
2018-02-10T05:02:40.316Z,93.80
2018-02-10T05:03:40.379Z,93.89
2018-02-10T05:04:40.446Z,93.51
2018-02-10T05:05:40.509Z,93.89
2018-02-10T05:06:40.576Z,93.80
2018-02-10T05:07:40.664Z,93.89
2018-02-10T05:08:40.714Z,93.70
2018-02-10T05:09:40.773Z,93.51
2018-02-10T05:10:40.836Z,93.32
2018-02-10T05:11:40.908Z,93.41
2018-02-10T05:12:40.973Z,93.41
2018-02-10T05:13:41.036Z,93.70
2018-02-10T05:14:41.112Z,93.89
2018-02-10T05:15:41.169Z,93.80
2018-02-10T05:16:41.232Z,93.51
2018-02-10T05:17:41.306Z,93.70
2018-02-10T05:18:41.366Z,93.51
2018-02-10T05:19:41.444Z,93.89
2018-02-10T05:20:41.575Z,93.89
2018-02-10T05:21:41.559Z,93.89
2018-02-10T05:22:41.661Z,93.70
2018-02-10T05:23:41.689Z,93.89
2018-02-10T05:24:41.756Z,93.70
2018-02-10T05:25:41.822Z,93.89
2018-02-10T05:26:41.881Z,93.89
2018-02-10T05:27:41.949Z,93.89
2018-02-10T05:28:42.017Z,93.70
2018-02-10T05:29:42.080Z,93.80
2018-02-10T05:30:42.158Z,93.89
2018-02-10T05:31:42.217Z,93.80
2018-02-10T05:32:42.274Z,93.80
2018-02-10T05:33:42.337Z,94.27
2018-02-10T05:34:42.439Z,94.37
2018-02-10T05:35:42.482Z,94.08
2018-02-10T05:36:42.535Z,93.89
2018-02-10T05:37:42.604Z,93.94
2018-02-10T05:38:42.672Z,94.08
2018-02-10T05:39:42.738Z,94.08
2018-02-10T05:40:42.797Z,93.89
2018-02-10T05:41:42.870Z,94.27
2018-02-10T05:42:42.943Z,93.99
2018-02-10T05:43:42.996Z,93.99
2018-02-10T05:44:43.065Z,93.61
2018-02-10T05:45:43.129Z,93.61
2018-02-10T05:46:43.202Z,93.75
2018-02-10T05:47:43.260Z,94.18
2018-02-10T05:48:43.319Z,93.89
2018-02-10T05:49:43.390Z,94.27
2018-02-10T05:50:43.450Z,94.18
2018-02-10T05:51:43.521Z,94.18
2018-02-10T05:52:43.582Z,93.89
2018-02-10T05:53:43.660Z,94.27
2018-02-10T05:54:43.713Z,93.99
2018-02-10T05:55:43.780Z,93.89
2018-02-10T05:56:43.839Z,93.89
2018-02-10T05:57:43.912Z,93.80
2018-02-10T05:58:43.974Z,93.70
2018-02-10T05:59:44.042Z,93.80
2018-02-10T06:00:44.110Z,93.89
2018-02-10T06:01:44.170Z,93.89
2018-02-10T06:02:44.234Z,93.61
2018-02-10T06:03:44.294Z,93.41
2018-02-10T06:04:44.368Z,93.61
2018-02-10T06:05:44.428Z,93.70
2018-02-10T06:06:44.507Z,93.89
2018-02-10T06:07:44.563Z,93.70
2018-02-10T06:08:44.618Z,93.89
2018-02-10T06:09:44.702Z,93.99
2018-02-10T06:10:44.762Z,94.18
2018-02-10T06:11:44.824Z,94.37
2018-02-10T06:12:44.900Z,93.99
2018-02-10T06:13:44.956Z,94.37
2018-02-10T06:14:45.020Z,94.08
2018-02-10T06:15:45.090Z,93.89
2018-02-10T06:16:45.150Z,93.99
2018-02-10T06:17:45.266Z,94.27
2018-02-10T06:18:45.282Z,93.89
2018-02-10T06:19:45.339Z,93.99
2018-02-10T06:20:45.411Z,93.99
2018-02-10T06:21:45.503Z,94.27
2018-02-10T06:22:45.541Z,93.89
2018-02-10T06:23:45.623Z,94.08
2018-02-10T06:24:45.673Z,93.99
2018-02-10T06:25:45.746Z,93.89
2018-02-10T06:26:45.808Z,93.89
2018-02-10T06:27:45.979Z,94.27
2018-02-10T06:28:45.934Z,93.99
2018-02-10T06:29:45.999Z,94.18
2018-02-10T06:30:46.069Z,94.18
2018-02-10T06:31:46.125Z,94.27
2018-02-10T06:32:46.191Z,94.18
2018-02-10T06:33:46.254Z,94.18
2018-02-10T06:34:46.325Z,94.37
2018-02-10T06:35:46.401Z,93.89
2018-02-10T06:36:46.457Z,93.89
2018-02-10T06:37:46.524Z,93.99
2018-02-10T06:38:46.587Z,93.70
2018-02-10T06:39:46.652Z,93.99
2018-02-10T06:40:46.717Z,93.80
2018-02-10T06:41:46.779Z,93.80
2018-02-10T06:42:46.861Z,93.80
2018-02-10T06:43:46.919Z,94.18
2018-02-10T06:44:46.986Z,93.70
2018-02-10T06:45:47.052Z,93.80
2018-02-10T06:46:47.109Z,93.51
2018-02-10T06:47:47.173Z,93.61
2018-02-10T06:48:47.245Z,93.89
2018-02-10T06:49:47.309Z,93.61
2018-02-10T06:50:47.368Z,93.61
2018-02-10T06:51:47.449Z,93.89
2018-02-10T06:52:47.499Z,93.70
2018-02-10T06:53:47.573Z,93.61
2018-02-10T06:54:47.631Z,93.89
2018-02-10T06:55:47.707Z,93.80
2018-02-10T06:56:47.761Z,94.27
2018-02-10T06:57:47.929Z,93.70
2018-02-10T06:58:47.890Z,93.89
2018-02-10T06:59:47.962Z,93.89
2018-02-10T07:00:48.027Z,93.89
2018-02-10T07:01:48.093Z,93.99
2018-02-10T07:02:48.167Z,94.27
2018-02-10T07:03:48.214Z,93.89
2018-02-10T07:04:48.290Z,93.99
2018-02-10T07:05:48.348Z,93.80
2018-02-10T07:06:48.417Z,93.99
2018-02-10T07:07:48.482Z,93.80
2018-02-10T07:08:48.550Z,93.70
2018-02-10T07:09:48.619Z,93.70
2018-02-10T07:10:48.672Z,93.61
2018-02-10T07:11:48.745Z,93.70
2018-02-10T07:12:48.885Z,93.99
2018-02-10T07:13:48.874Z,93.99
2018-02-10T07:14:48.937Z,93.84
2018-02-10T07:15:49.001Z,93.84
2018-02-10T07:16:49.069Z,93.84
2018-02-10T07:17:49.129Z,93.46
2018-02-10T07:18:49.202Z,93.75
2018-02-10T07:19:49.290Z,93.27
2018-02-10T07:20:49.342Z,93.75
2018-02-10T07:21:49.423Z,93.75
2018-02-10T07:22:49.464Z,93.65
2018-02-10T07:23:49.529Z,93.75
2018-02-10T07:24:49.599Z,93.65
2018-02-10T07:25:49.711Z,93.27
2018-02-10T07:26:49.721Z,93.18
2018-02-10T07:27:49.888Z,93.37
2018-02-10T07:28:49.886Z,93.37
2018-02-10T07:29:49.928Z,93.37
2018-02-10T07:30:49.991Z,93.56
2018-02-10T07:31:50.055Z,93.46
2018-02-10T07:32:50.129Z,93.56
2018-02-10T07:33:50.180Z,93.37
2018-02-10T07:34:50.258Z,93.46
2018-02-10T07:35:50.328Z,93.37
2018-02-10T07:36:50.383Z,93.37
2018-02-10T07:37:50.447Z,93.37
2018-02-10T07:38:50.513Z,93.37
2018-02-10T07:39:50.614Z,92.80
2018-02-10T07:40:50.642Z,93.08
2018-02-10T07:41:50.710Z,93.46
2018-02-10T07:42:50.770Z,93.27
2018-02-10T07:43:50.843Z,93.27
2018-02-10T07:44:50.910Z,92.99
2018-02-10T07:45:50.977Z,93.37
2018-02-10T07:46:51.042Z,93.27
2018-02-10T07:47:51.105Z,92.80
2018-02-10T07:48:51.181Z,93.18
2018-02-10T07:49:51.251Z,93.08
2018-02-10T07:50:51.304Z,93.18
2018-02-10T07:51:51.367Z,93.08
2018-02-10T07:52:51.502Z,92.99
2018-02-10T07:53:51.510Z,92.90
2018-02-10T07:54:51.572Z,93.46
2018-02-10T07:55:51.641Z,93.18
2018-02-10T07:56:51.712Z,92.99
2018-02-10T07:57:51.848Z,92.99
2018-02-10T07:58:51.829Z,93.27
2018-02-10T07:59:51.893Z,93.37
2018-02-10T08:00:51.954Z,93.27
2018-02-10T08:01:52.032Z,93.32
2018-02-10T08:02:52.096Z,93.51
2018-02-10T08:03:52.162Z,93.23
2018-02-10T08:04:52.220Z,92.47
2018-02-10T08:05:52.307Z,92.94
2018-02-10T08:06:52.358Z,93.04
2018-02-10T08:07:52.416Z,92.94
2018-02-10T08:08:52.486Z,92.85
2018-02-10T08:09:52.556Z,92.94
2018-02-10T08:10:52.620Z,92.85
2018-02-10T08:11:52.684Z,92.94
2018-02-10T08:12:52.765Z,93.04
2018-02-10T08:13:52.905Z,92.94
2018-02-10T08:14:52.882Z,92.66
2018-02-10T08:15:52.946Z,92.47
2018-02-10T08:16:53.027Z,92.47
2018-02-10T08:17:53.320Z,92.56
2018-02-10T08:18:53.152Z,92.75
2018-02-10T08:19:53.215Z,92.47
2018-02-10T08:20:53.286Z,92.37
2018-02-10T08:21:53.357Z,92.28
2018-02-10T08:22:53.415Z,92.47
2018-02-10T08:23:53.475Z,92.56
2018-02-10T08:24:53.555Z,92.18
2018-02-10T08:25:53.609Z,92.09
2018-02-10T08:26:53.672Z,92.28
2018-02-10T08:27:53.797Z,92.56
2018-02-10T08:28:53.810Z,92.56
2018-02-10T08:29:53.870Z,92.56
2018-02-10T08:30:53.934Z,92.47
2018-02-10T08:31:54.012Z,92.56
2018-02-10T08:32:54.074Z,92.75
2018-02-10T08:33:54.144Z,92.47
2018-02-10T08:34:54.204Z,92.75
2018-02-10T08:35:54.265Z,92.37
2018-02-10T08:36:54.332Z,92.18
2018-02-10T08:37:54.399Z,92.37
2018-02-10T08:38:54.464Z,92.18
2018-02-10T08:39:54.527Z,92.56
2018-02-10T08:40:54.609Z,92.66
2018-02-10T08:41:54.660Z,92.56
2018-02-10T08:42:54.740Z,92.28
2018-02-10T08:43:54.798Z,92.18
2018-02-10T08:44:54.875Z,92.47
2018-02-10T08:45:54.922Z,92.47
2018-02-10T08:46:54.996Z,92.56
2018-02-10T08:47:55.079Z,92.37
2018-02-10T08:48:55.131Z,92.56
2018-02-10T08:49:55.187Z,92.56
2018-02-10T08:50:55.254Z,92.28
2018-02-10T08:51:55.336Z,92.47
2018-02-10T08:52:55.390Z,92.56
2018-02-10T08:53:55.454Z,92.56
2018-02-10T08:54:55.521Z,92.66
2018-02-10T08:55:55.599Z,92.37
2018-02-10T08:56:55.658Z,92.66
2018-02-10T08:57:55.751Z,92.66
2018-02-10T08:58:55.780Z,92.66
2018-02-10T08:59:55.858Z,92.18
2018-02-10T09:00:55.923Z,92.23
2018-02-10T09:01:55.981Z,92.13
2018-02-10T09:02:56.051Z,91.66
2018-02-10T09:03:56.110Z,91.94
2018-02-10T09:04:56.194Z,92.13
2018-02-10T09:05:56.252Z,92.13
2018-02-10T09:06:56.396Z,92.13
2018-02-10T09:07:56.381Z,92.13
2018-02-10T09:08:56.448Z,91.85
2018-02-10T09:09:56.566Z,91.75
2018-02-10T09:10:56.587Z,91.85
2018-02-10T09:11:56.651Z,92.23
2018-02-10T09:12:56.721Z,92.04
2018-02-10T09:13:56.771Z,92.13
2018-02-10T09:14:56.839Z,92.32
2018-02-10T09:15:56.913Z,92.32
2018-02-10T09:16:56.977Z,92.23
2018-02-10T09:17:57.050Z,92.51
2018-02-10T09:18:57.104Z,92.13
2018-02-10T09:19:57.183Z,92.18
2018-02-10T09:20:57.242Z,92.51
2018-02-10T09:21:57.309Z,92.47
2018-02-10T09:22:57.375Z,92.56
2018-02-10T09:23:57.444Z,92.61
2018-02-10T09:24:57.505Z,92.42
2018-02-10T09:25:57.575Z,92.51
2018-02-10T09:26:57.642Z,91.94
2018-02-10T09:27:57.821Z,92.32
2018-02-10T09:28:57.788Z,92.23
2018-02-10T09:29:57.852Z,92.13
2018-02-10T09:30:57.901Z,92.04
2018-02-10T09:31:57.973Z,92.42
2018-02-10T09:32:58.036Z,92.23
2018-02-10T09:33:58.108Z,92.23
2018-02-10T09:34:58.199Z,92.37
2018-02-10T09:35:58.240Z,92.09
2018-02-10T09:36:58.302Z,92.28
2018-02-10T09:37:58.366Z,92.28
2018-02-10T09:38:58.437Z,92.23
2018-02-10T09:39:58.518Z,92.09
2018-02-10T09:40:58.574Z,92.23
2018-02-10T09:41:58.641Z,92.09
2018-02-10T09:42:58.695Z,92.47
2018-02-10T09:43:58.790Z,92.66
2018-02-10T09:44:58.833Z,92.47
2018-02-10T09:45:58.902Z,92.47
2018-02-10T09:46:58.966Z,92.66
2018-02-10T09:47:59.031Z,92.75
2018-02-10T09:48:59.103Z,92.56
2018-02-10T09:49:59.170Z,92.56
2018-02-10T09:50:59.236Z,92.66
2018-02-10T09:51:59.291Z,92.09
2018-02-10T09:52:59.360Z,92.47
2018-02-10T09:53:59.423Z,92.66
2018-02-10T09:54:59.493Z,92.66
2018-02-10T09:55:59.564Z,92.56
2018-02-10T09:56:59.628Z,92.66
2018-02-10T09:57:59.770Z,92.56
2018-02-10T09:58:59.754Z,92.37
2018-02-10T09:59:59.828Z,92.75
2018-02-10T10:00:59.888Z,92.56
2018-02-10T10:01:59.980Z,92.28
2018-02-10T10:03:00.022Z,92.18
2018-02-10T10:04:00.090Z,92.37
2018-02-10T10:05:00.174Z,92.56
2018-02-10T10:06:00.219Z,92.75
2018-02-10T10:07:00.288Z,92.66
2018-02-10T10:08:00.369Z,92.66
2018-02-10T10:09:00.429Z,92.56
2018-02-10T10:10:00.482Z,92.66
2018-02-10T10:11:00.557Z,93.13
2018-02-10T10:12:00.624Z,93.23
2018-02-10T10:13:00.724Z,93.23
2018-02-10T10:14:00.754Z,93.23
2018-02-10T10:15:00.815Z,92.56
2018-02-10T10:16:00.882Z,93.04
2018-02-10T10:17:00.967Z,92.94
2018-02-10T10:18:01.156Z,92.94
2018-02-10T10:19:01.314Z,93.04
2018-02-10T10:20:01.171Z,93.23
2018-02-10T10:21:01.361Z,93.04
2018-02-10T10:22:01.324Z,93.32
2018-02-10T10:23:01.361Z,92.66
2018-02-10T10:24:01.442Z,93.32
2018-02-10T10:25:01.480Z,93.04
2018-02-10T10:26:01.549Z,93.23
2018-02-10T10:27:01.619Z,92.66
2018-02-10T10:28:01.683Z,92.18
2018-02-10T10:29:01.743Z,92.47
2018-02-10T10:30:01.810Z,92.47
2018-02-10T10:31:02.058Z,92.66
2018-02-10T10:32:01.950Z,92.66
2018-02-10T10:33:02.012Z,92.66
2018-02-10T10:34:02.338Z,92.47
2018-02-10T10:35:02.144Z,92.37
2018-02-10T10:36:02.220Z,92.66
2018-02-10T10:37:02.277Z,92.66
2018-02-10T10:38:02.338Z,92.47
2018-02-10T10:39:02.422Z,92.99
2018-02-10T10:40:02.474Z,92.18
2018-02-10T10:41:02.538Z,92.09
2018-02-10T10:42:02.607Z,92.47
2018-02-10T10:43:02.729Z,92.47
2018-02-10T10:44:02.736Z,92.47
2018-02-10T10:45:02.809Z,92.47
2018-02-10T10:46:02.866Z,92.61
2018-02-10T10:47:02.947Z,92.71
2018-02-10T10:48:03.001Z,92.71
2018-02-10T10:49:03.105Z,92.51
2018-02-10T10:50:03.149Z,92.32
2018-02-10T10:51:07.158Z,91.94
2018-02-10T10:52:03.281Z,92.42
2018-02-10T10:53:03.328Z,92.04
2018-02-10T10:54:03.419Z,92.32
2018-02-10T10:55:03.463Z,92.13
2018-02-10T10:56:03.543Z,92.04
2018-02-10T10:57:03.605Z,91.75
2018-02-10T10:58:03.666Z,91.85
2018-02-10T10:59:03.743Z,92.13
2018-02-10T11:00:03.794Z,92.13
2018-02-10T11:01:03.878Z,91.85
2018-02-10T11:02:03.948Z,91.94
2018-02-10T11:03:04.036Z,92.04
2018-02-10T11:04:04.057Z,91.94
2018-02-10T11:05:04.134Z,92.13
2018-02-10T11:06:04.197Z,91.94
2018-02-10T11:07:04.320Z,91.94
2018-02-10T11:08:04.774Z,92.04
2018-02-10T11:09:04.396Z,91.85
2018-02-10T11:10:04.466Z,91.94
2018-02-10T11:11:04.565Z,91.85
2018-02-10T11:12:04.608Z,92.04
2018-02-10T11:13:04.660Z,91.94
2018-02-10T11:14:04.751Z,92.13
2018-02-10T11:15:04.802Z,92.23
2018-02-10T11:16:04.859Z,91.94
2018-02-10T11:17:05.090Z,91.75
2018-02-10T11:18:04.992Z,91.85
2018-02-10T11:19:05.060Z,92.04
2018-02-10T11:20:05.151Z,91.94
2018-02-10T11:21:05.194Z,91.94
2018-02-10T11:22:05.266Z,91.94
2018-02-10T11:23:05.330Z,92.13
2018-02-10T11:24:05.392Z,92.13
2018-02-10T11:25:05.457Z,91.75
2018-02-10T11:26:05.519Z,91.94
2018-02-10T11:27:05.602Z,91.94
2018-02-10T11:28:05.937Z,92.13
2018-02-10T11:29:05.745Z,91.85
2018-02-10T11:30:05.802Z,91.66
2018-02-10T11:31:05.855Z,91.94
2018-02-10T11:32:05.948Z,91.85
2018-02-10T11:33:05.991Z,92.32
2018-02-10T11:34:06.065Z,92.13
2018-02-10T11:35:06.125Z,92.23
2018-02-10T11:36:06.212Z,92.08
2018-02-10T11:37:06.261Z,91.75
2018-02-10T11:38:06.323Z,91.99
2018-02-10T11:39:06.392Z,92.13
2018-02-10T11:40:06.461Z,91.85
2018-02-10T11:41:06.544Z,92.32
2018-02-10T11:42:06.592Z,91.89
2018-02-10T11:43:06.655Z,91.80
2018-02-10T11:44:06.718Z,92.18
2018-02-10T11:45:06.787Z,92.27
2018-02-10T11:46:06.892Z,91.89
2018-02-10T11:47:06.921Z,91.61
2018-02-10T11:48:06.990Z,91.61
2018-02-10T11:49:07.086Z,91.80
2018-02-10T11:50:07.127Z,91.89
2018-02-10T11:51:07.202Z,91.80
2018-02-10T11:52:07.258Z,91.61
2018-02-10T11:53:07.326Z,91.80
2018-02-10T11:54:07.444Z,91.89
2018-02-10T11:55:07.452Z,91.23
2018-02-10T11:56:07.528Z,91.52
2018-02-10T11:57:07.601Z,91.80
2018-02-10T11:58:07.663Z,91.61
2018-02-10T11:59:07.722Z,91.23
2018-02-10T12:00:07.790Z,91.61
2018-02-10T12:01:07.860Z,91.52
2018-02-10T12:02:07.922Z,91.13
2018-02-10T12:03:07.989Z,91.13
2018-02-10T12:04:08.055Z,91.13
2018-02-10T12:05:08.121Z,91.23
2018-02-10T12:06:08.194Z,91.13
2018-02-10T12:07:08.259Z,91.13
2018-02-10T12:08:08.330Z,91.04
2018-02-10T12:09:08.388Z,90.94
2018-02-10T12:10:08.452Z,90.75
2018-02-10T12:11:08.527Z,91.13
2018-02-10T12:12:08.587Z,90.85
2018-02-10T12:13:08.660Z,91.23
2018-02-10T12:14:08.735Z,91.13
2018-02-10T12:15:08.816Z,91.13
2018-02-10T12:16:08.870Z,91.13
2018-02-10T12:17:08.924Z,91.33
2018-02-10T12:18:08.997Z,91.04
2018-02-10T12:19:09.056Z,91.23
2018-02-10T12:20:09.182Z,91.33
2018-02-10T12:21:09.197Z,91.33
2018-02-10T12:22:09.263Z,91.23
2018-02-10T12:23:09.325Z,91.23
2018-02-10T12:24:09.397Z,91.13
2018-02-10T12:25:09.470Z,91.13
2018-02-10T12:26:09.589Z,91.33
2018-02-10T12:27:10.056Z,91.23
2018-02-10T12:28:09.875Z,91.04
2018-02-10T12:29:09.764Z,91.52
2018-02-10T12:30:09.792Z,91.23
2018-02-10T12:31:09.855Z,91.33
2018-02-10T12:32:10.389Z,91.42
2018-02-10T12:33:09.990Z,91.80
2018-02-10T12:34:10.065Z,91.61
2018-02-10T12:35:10.138Z,91.61
2018-02-10T12:36:10.194Z,91.61
2018-02-10T12:37:10.260Z,91.99
2018-02-10T12:38:10.335Z,91.71
2018-02-10T12:39:10.411Z,91.71
2018-02-10T12:40:10.468Z,91.80
2018-02-10T12:41:10.551Z,91.61
2018-02-10T12:42:10.601Z,92.08
2018-02-10T12:43:10.667Z,91.52
2018-02-10T12:44:10.732Z,91.52
2018-02-10T12:45:10.797Z,91.80
2018-02-10T12:46:10.864Z,91.33
2018-02-10T12:47:10.930Z,91.52
2018-02-10T12:48:10.995Z,91.61
2018-02-10T12:49:11.082Z,91.80
2018-02-10T12:50:11.141Z,91.71
2018-02-10T12:51:11.191Z,92.08
2018-02-10T12:52:11.262Z,91.80
2018-02-10T12:53:11.336Z,91.89